Time,TemperatureF,DewpointF,PressureIn,WindDirection,WindDirectionDegrees,WindSpeedMPH,WindSpeedGustMPH,Humidity,HourlyPrecipIn,Conditions,Clouds,dailyrainin,SolarRadiationWatts/m^2,SoftwareType,DateUTC
2013-06-27 00:01:00,59.0,47.0,-100.00,SW,217,2.0,7.0,64,0.00,,,0.04,0.000000,,2013-06-27 06:01:00,
2013-06-27 00:12:00,59.0,47.0,-100.00,SW,217,2.0,7.0,64,0.00,,,0.04,0.000000,,2013-06-27 06:12:00,
2013-06-27 00:22:00,59.0,47.0,-100.00,SW,217,2.0,7.0,64,0.00,,,0.04,0.000000,,2013-06-27 06:22:00,
2013-06-27 00:34:00,59.0,47.0,-100.00,SW,217,2.0,7.0,64,0.00,,,0.04,0.000000,,2013-06-27 06:34:00,
2013-06-27 01:02:00,54.0,46.0,-100.00,North,352,1.0,4.0,75,0.00,,,0.02,0.000000,,2013-06-27 07:02:00,
2013-06-27 01:12:00,54.0,46.0,-100.00,North,352,1.0,4.0,75,0.00,,,0.02,0.000000,,2013-06-27 07:12:00,
2013-06-27 01:22:00,54.0,46.0,-100.00,North,352,1.0,4.0,75,0.00,,,0.02,0.000000,,2013-06-27 07:22:00,
2013-06-27 01:33:00,54.0,46.0,-100.00,North,352,1.0,4.0,75,0.00,,,0.02,0.000000,,2013-06-27 07:33:00,
2013-06-27 02:01:00,49.0,45.0,-100.00,North,0,0.0,3.0,85,0.00,,,-99.99,0.000000,,2013-06-27 08:01:00,
2013-06-27 02:11:00,49.0,45.0,-100.00,North,0,0.0,3.0,85,0.00,,,-99.99,0.000000,,2013-06-27 08:11:00,
2013-06-27 02:22:00,49.0,45.0,-100.00,North,0,0.0,3.0,85,0.00,,,-99.99,0.000000,,2013-06-27 08:22:00,
2013-06-27 02:34:00,49.0,45.0,-100.00,North,0,0.0,3.0,85,0.00,,,-99.99,0.000000,,2013-06-27 08:34:00,
2013-06-27 03:02:00,47.0,44.0,-100.00,West,275,0.0,2.0,90,0.00,,,0.00,0.000000,,2013-06-27 09:02:00,
2013-06-27 03:11:00,47.0,44.0,-100.00,West,275,0.0,2.0,90,0.00,,,0.00,0.000000,,2013-06-27 09:11:00,
2013-06-27 03:22:00,47.0,44.0,-100.00,West,275,0.0,2.0,90,0.00,,,0.00,0.000000,,2013-06-27 09:22:00,
2013-06-27 03:33:00,47.0,44.0,-100.00,West,275,0.0,2.0,90,0.00,,,0.00,0.000000,,2013-06-27 09:33:00,
2013-06-27 04:01:00,44.0,42.0,-100.00,SE,142,0.0,1.0,91,0.00,,,0.00,0.000000,,2013-06-27 10:01:00,
2013-06-27 04:11:00,44.0,42.0,-100.00,SE,142,0.0,1.0,91,0.00,,,0.00,0.000000,,2013-06-27 10:11:00,
2013-06-27 04:22:00,44.0,42.0,-100.00,SE,142,0.0,1.0,91,0.00,,,0.00,0.000000,,2013-06-27 10:22:00,
2013-06-27 04:32:00,44.0,42.0,-100.00,SE,142,0.0,1.0,91,0.00,,,0.00,0.000000,,2013-06-27 10:32:00,
2013-06-27 05:01:00,42.0,40.0,-100.00,SSE,154,0.0,1.0,93,0.00,,,0.00,0.000000,,2013-06-27 11:01:00,
2013-06-27 05:11:00,42.0,40.0,-100.00,SSE,154,0.0,1.0,93,0.00,,,0.00,0.000000,,2013-06-27 11:11:00,
2013-06-27 05:21:00,42.0,40.0,-100.00,SSE,154,0.0,1.0,93,0.00,,,0.00,0.000000,,2013-06-27 11:21:00,
2013-06-27 05:33:00,42.0,40.0,-100.00,SSE,154,0.0,1.0,93,0.00,,,0.00,0.000000,,2013-06-27 11:33:00,
2013-06-27 06:01:00,40.0,38.0,-100.00,NW,313,0.0,0.0,94,0.00,,,0.00,0.000000,,2013-06-27 12:01:00,
2013-06-27 06:11:00,40.0,38.0,-100.00,NW,313,0.0,0.0,94,0.00,,,0.00,0.000000,,2013-06-27 12:11:00,
2013-06-27 06:22:00,40.0,38.0,-100.00,NW,313,0.0,0.0,94,0.00,,,0.00,0.000000,,2013-06-27 12:22:00,
2013-06-27 06:34:00,40.0,38.0,-100.00,NW,313,0.0,0.0,94,0.00,,,0.00,0.000000,,2013-06-27 12:34:00,
2013-06-27 07:01:00,40.0,39.0,-100.00,South,191,0.0,0.0,95,0.00,,,0.00,8.000000,,2013-06-27 13:01:00,
2013-06-27 07:11:00,40.0,39.0,-100.00,South,191,0.0,0.0,95,0.00,,,0.00,8.000000,,2013-06-27 13:11:00,
2013-06-27 07:22:00,40.0,39.0,-100.00,South,191,0.0,0.0,95,0.00,,,0.00,8.000000,,2013-06-27 13:22:00,
2013-06-27 07:33:00,40.0,39.0,-100.00,South,191,0.0,0.0,95,0.00,,,0.00,8.000000,,2013-06-27 13:33:00,
2013-06-27 08:01:00,47.0,45.0,-100.00,WSW,244,1.0,2.0,93,0.00,,,0.00,26.000000,,2013-06-27 14:01:00,
2013-06-27 08:11:00,47.0,45.0,-100.00,WSW,244,1.0,2.0,93,0.00,,,0.00,26.000000,,2013-06-27 14:11:00,
2013-06-27 08:22:00,47.0,45.0,-100.00,WSW,244,1.0,2.0,93,0.00,,,0.00,26.000000,,2013-06-27 14:22:00,
2013-06-27 08:33:00,47.0,45.0,-100.00,WSW,244,1.0,2.0,93,0.00,,,0.00,26.000000,,2013-06-27 14:33:00,
2013-06-27 09:01:00,58.0,47.0,-100.00,WNW,290,1.0,3.0,68,0.00,,,0.00,255.000000,,2013-06-27 15:01:00,
2013-06-27 09:11:00,58.0,47.0,-100.00,WNW,290,1.0,3.0,68,0.00,,,0.00,255.000000,,2013-06-27 15:11:00,
2013-06-27 09:22:00,58.0,47.0,-100.00,WNW,290,1.0,3.0,68,0.00,,,0.00,255.000000,,2013-06-27 15:22:00,
2013-06-27 09:33:00,58.0,47.0,-100.00,WNW,290,1.0,3.0,68,0.00,,,0.00,255.000000,,2013-06-27 15:33:00,
2013-06-27 10:11:00,65.0,49.0,-100.00,WNW,303,2.0,4.0,56,0.00,,,0.00,576.000000,,2013-06-27 16:11:00,
2013-06-27 10:23:00,65.0,49.0,-100.00,WNW,303,2.0,4.0,56,0.00,,,0.00,576.000000,,2013-06-27 16:23:00,
2013-06-27 10:33:00,65.0,49.0,-100.00,WNW,303,2.0,4.0,56,0.00,,,0.00,576.000000,,2013-06-27 16:33:00,
2013-06-27 11:01:00,73.0,50.0,-100.00,South,188,2.0,5.0,45,0.00,,,0.00,761.000000,,2013-06-27 17:01:00,
2013-06-27 11:11:00,73.0,50.0,-100.00,South,188,2.0,5.0,45,0.00,,,0.00,761.000000,,2013-06-27 17:11:00,
2013-06-27 11:22:00,73.0,50.0,-100.00,South,188,2.0,5.0,45,0.00,,,0.00,761.000000,,2013-06-27 17:22:00,
2013-06-27 11:33:00,73.0,50.0,-100.00,South,188,2.0,5.0,45,0.00,,,0.00,761.000000,,2013-06-27 17:33:00,
2013-06-27 12:01:00,77.0,47.0,-100.00,SW,218,6.0,12.0,35,0.00,,,0.00,912.000000,,2013-06-27 18:01:00,
2013-06-27 12:11:00,77.0,47.0,-100.00,SW,218,6.0,12.0,35,0.00,,,0.00,912.000000,,2013-06-27 18:11:00,
2013-06-27 12:22:00,77.0,47.0,-100.00,SW,218,6.0,12.0,35,0.00,,,0.00,912.000000,,2013-06-27 18:22:00,
2013-06-27 12:32:00,77.0,47.0,-100.00,SW,218,6.0,12.0,35,0.00,,,0.00,912.000000,,2013-06-27 18:32:00,
2013-06-27 13:33:00,81.0,48.0,-100.00,SSW,205,5.0,15.0,32,0.00,,,0.00,1016.000000,,2013-06-27 19:33:00,
2013-06-27 14:01:00,81.0,47.0,-100.00,SW,214,5.0,13.0,30,0.00,,,0.00,1078.000000,,2013-06-27 20:01:00,
2013-06-27 14:11:00,81.0,47.0,-100.00,SW,214,5.0,13.0,30,0.00,,,0.00,1078.000000,,2013-06-27 20:11:00,
2013-06-27 14:22:00,81.0,47.0,-100.00,SW,214,5.0,13.0,30,0.00,,,0.00,1078.000000,,2013-06-27 20:22:00,
2013-06-27 14:35:00,81.0,47.0,-100.00,SW,214,5.0,13.0,30,0.00,,,0.00,1078.000000,,2013-06-27 20:35:00,
2013-06-27 15:13:00,83.0,46.0,-100.00,SSW,204,5.0,15.0,27,0.00,,,0.00,1067.000000,,2013-06-27 21:13:00,
2013-06-27 15:34:00,83.0,46.0,-100.00,SSW,204,5.0,15.0,27,0.00,,,0.00,1067.000000,,2013-06-27 21:34:00,
2013-06-27 16:04:00,85.0,44.0,-100.00,SSW,213,4.0,16.0,24,0.00,,,0.00,1005.000000,,2013-06-27 22:04:00,
2013-06-27 16:13:00,85.0,44.0,-100.00,SSW,213,4.0,16.0,24,0.00,,,0.00,1005.000000,,2013-06-27 22:13:00,
2013-06-27 16:22:00,85.0,44.0,-100.00,SSW,213,4.0,16.0,24,0.00,,,0.00,1005.000000,,2013-06-27 22:22:00,
2013-06-27 16:33:00,85.0,44.0,-100.00,SSW,213,4.0,16.0,24,0.00,,,0.00,1005.000000,,2013-06-27 22:33:00,
2013-06-27 17:03:00,85.0,41.0,-100.00,SW,219,5.0,14.0,21,0.00,,,0.00,843.000000,,2013-06-27 23:03:00,
2013-06-27 17:14:00,85.0,41.0,-100.00,SW,219,5.0,14.0,21,0.00,,,0.00,843.000000,,2013-06-27 23:14:00,
2013-06-27 17:24:00,85.0,41.0,-100.00,SW,219,5.0,14.0,21,0.00,,,0.00,843.000000,,2013-06-27 23:24:00,
2013-06-27 17:33:00,85.0,41.0,-100.00,SW,219,5.0,14.0,21,0.00,,,0.00,843.000000,,2013-06-27 23:33:00,
2013-06-27 18:04:00,83.0,41.0,-100.00,SW,214,5.0,12.0,23,0.00,,,0.00,569.000000,,2013-06-28 00:04:00,
2013-06-27 18:13:00,83.0,41.0,-100.00,SW,214,5.0,12.0,23,0.00,,,0.00,569.000000,,2013-06-28 00:13:00,
2013-06-27 18:25:00,83.0,41.0,-100.00,SW,214,5.0,12.0,23,0.00,,,0.00,569.000000,,2013-06-28 00:25:00,
2013-06-27 18:34:00,83.0,41.0,-100.00,SW,214,5.0,12.0,23,0.00,,,0.00,569.000000,,2013-06-28 00:34:00,
2013-06-27 19:04:00,80.0,40.0,-100.00,SSW,213,4.0,11.0,24,0.00,,,0.00,65.000000,,2013-06-28 01:04:00,
2013-06-27 19:23:00,80.0,40.0,-100.00,SSW,213,4.0,11.0,24,0.00,,,0.00,65.000000,,2013-06-28 01:23:00,
2013-06-27 19:34:00,80.0,40.0,-100.00,SSW,213,4.0,11.0,24,0.00,,,0.00,65.000000,,2013-06-28 01:34:00,
2013-06-27 20:04:00,78.0,44.0,-100.00,SSW,200,4.0,11.0,30,0.00,,,0.00,32.000000,,2013-06-28 02:04:00,
2013-06-27 20:14:00,78.0,44.0,-100.00,SSW,200,4.0,11.0,30,0.00,,,0.00,32.000000,,2013-06-28 02:14:00,
2013-06-27 20:24:00,78.0,44.0,-100.00,SSW,200,4.0,11.0,30,0.00,,,0.00,32.000000,,2013-06-28 02:24:00,
2013-06-27 20:34:00,78.0,44.0,-100.00,SSW,200,4.0,11.0,30,0.00,,,0.00,32.000000,,2013-06-28 02:34:00,
2013-06-27 21:04:00,75.0,46.0,-100.00,South,190,3.0,11.0,36,0.00,,,0.00,17.000000,,2013-06-28 03:04:00,
2013-06-27 21:14:00,75.0,46.0,-100.00,South,190,3.0,11.0,36,0.00,,,0.00,17.000000,,2013-06-28 03:14:00,
2013-06-27 21:23:00,75.0,46.0,-100.00,South,190,3.0,11.0,36,0.00,,,0.00,17.000000,,2013-06-28 03:23:00,
2013-06-27 21:34:00,75.0,46.0,-100.00,South,190,3.0,11.0,36,0.00,,,0.00,17.000000,,2013-06-28 03:34:00,
2013-06-27 22:02:00,67.0,49.0,-100.00,East,100,0.0,9.0,53,0.00,,,0.00,3.000000,,2013-06-28 04:02:00,
2013-06-27 22:11:00,67.0,49.0,-100.00,East,100,0.0,9.0,53,0.00,,,0.00,3.000000,,2013-06-28 04:11:00,
2013-06-27 22:22:00,67.0,49.0,-100.00,East,100,0.0,9.0,53,0.00,,,0.00,3.000000,,2013-06-28 04:22:00,
2013-06-27 22:33:00,67.0,49.0,-100.00,East,100,0.0,9.0,53,0.00,,,0.00,3.000000,,2013-06-28 04:33:00,
2013-06-27 23:01:00,61.0,48.0,-100.00,NNW,336,0.0,2.0,62,0.00,,,0.00,0.000000,,2013-06-28 05:01:00,
2013-06-27 23:11:00,61.0,48.0,-100.00,NNW,336,0.0,2.0,62,0.00,,,0.00,0.000000,,2013-06-28 05:11:00,
2013-06-27 23:22:00,61.0,48.0,-100.00,NNW,336,0.0,2.0,62,0.00,,,0.00,0.000000,,2013-06-28 05:22:00,
2013-06-27 23:33:00,61.0,48.0,-100.00,NNW,336,0.0,2.0,62,0.00,,,0.00,0.000000,,2013-06-28 05:33:00,